sensor_id;sensor_type;location;lat;lon;timestamp;pressure;altitude;pressure_sealevel;temperature;humidity
68948;BME280;55996;49.546;7.400;2022-09-09T00:04:32;98229.25;;;16.27;100.00
68948;BME280;55996;49.546;7.400;2022-09-09T00:09:31;98232.19;;;16.23;100.00
68948;BME280;55996;49.546;7.400;2022-09-09T00:12:02;98210.16;;;16.09;100.00
68948;BME280;55996;49.546;7.400;2022-09-09T00:17:44;98210.75;;;16.00;100.00
68948;BME280;55996;49.546;7.400;2022-09-09T00:20:12;98228.81;;;16.06;100.00
68948;BME280;55996;49.546;7.400;2022-09-09T00:22:41;98208.19;;;15.98;100.00
68948;BME280;55996;49.546;7.400;2022-09-09T00:25:15;98208.66;;;16.05;100.00
68948;BME280;55996;49.546;7.400;2022-09-09T00:27:48;98215.25;;;16.12;100.00
68948;BME280;55996;49.546;7.400;2022-09-09T00:32:40;98197.25;;;16.05;100.00
68948;BME280;55996;49.546;7.400;2022-09-09T00:35:17;98200.75;;;16.05;100.00
68948;BME280;55996;49.546;7.400;2022-09-09T00:37:48;98198.28;;;16.17;100.00
68948;BME280;55996;49.546;7.400;2022-09-09T00:43:02;98191.47;;;16.27;100.00
68948;BME280;55996;49.546;7.400;2022-09-09T00:48:08;98200.72;;;16.47;100.00
68948;BME280;55996;49.546;7.400;2022-09-09T00:50:55;98196.84;;;16.53;100.00
68948;BME280;55996;49.546;7.400;2022-09-09T00:58:34;98199.06;;;16.59;100.00
68948;BME280;55996;49.546;7.400;2022-09-09T01:01:10;98198.13;;;16.60;100.00
68948;BME280;55996;49.546;7.400;2022-09-09T01:03:48;98202.91;;;16.68;100.00
68948;BME280;55996;49.546;7.400;2022-09-09T01:06:37;98204.78;;;16.66;100.00
68948;BME280;55996;49.546;7.400;2022-09-09T01:14:35;98212.78;;;16.51;100.00
68948;BME280;55996;49.546;7.400;2022-09-09T01:17:14;98218.16;;;16.50;100.00
68948;BME280;55996;49.546;7.400;2022-09-09T01:27:38;98211.84;;;16.52;100.00
68948;BME280;55996;49.546;7.400;2022-09-09T01:30:10;98201.56;;;16.48;100.00
68948;BME280;55996;49.546;7.400;2022-09-09T01:32:39;98207.69;;;16.48;100.00
68948;BME280;55996;49.546;7.400;2022-09-09T01:37:55;98201.31;;;16.38;100.00
68948;BME280;55996;49.546;7.400;2022-09-09T01:40:21;98204.25;;;16.33;100.00
68948;BME280;55996;49.546;7.400;2022-09-09T01:42:46;98202.38;;;16.35;100.00
68948;BME280;55996;49.546;7.400;2022-09-09T01:45:12;98210.28;;;16.35;100.00
68948;BME280;55996;49.546;7.400;2022-09-09T01:47:38;98208.59;;;16.34;100.00
68948;BME280;55996;49.546;7.400;2022-09-09T01:50:03;98206.16;;;16.31;100.00
68948;BME280;55996;49.546;7.400;2022-09-09T01:52:30;98188.72;;;16.28;100.00
68948;BME280;55996;49.546;7.400;2022-09-09T01:54:57;98198.47;;;16.41;100.00
68948;BME280;55996;49.546;7.400;2022-09-09T01:57:27;98199.78;;;16.48;100.00
68948;BME280;55996;49.546;7.400;2022-09-09T02:00:11;98208.03;;;16.56;100.00
68948;BME280;55996;49.546;7.400;2022-09-09T02:08:19;98212.88;;;16.50;100.00
68948;BME280;55996;49.546;7.400;2022-09-09T02:10:56;98211.84;;;16.52;100.00
68948;BME280;55996;49.546;7.400;2022-09-09T02:13:24;98206.00;;;16.47;100.00
68948;BME280;55996;49.546;7.400;2022-09-09T02:16:21;98204.00;;;16.51;100.00
68948;BME280;55996;49.546;7.400;2022-09-09T02:19:19;98196.63;;;16.56;100.00
68948;BME280;55996;49.546;7.400;2022-09-09T02:21:52;98193.84;;;16.44;100.00
68948;BME280;55996;49.546;7.400;2022-09-09T02:24:19;98187.22;;;16.52;100.00
68948;BME280;55996;49.546;7.400;2022-09-09T02:26:46;98187.34;;;16.50;100.00
68948;BME280;55996;49.546;7.400;2022-09-09T02:29:22;98198.00;;;16.49;100.00
68948;BME280;55996;49.546;7.400;2022-09-09T02:31:49;98203.16;;;16.50;100.00
68948;BME280;55996;49.546;7.400;2022-09-09T02:34:17;98202.34;;;16.50;100.00
68948;BME280;55996;49.546;7.400;2022-09-09T02:36:45;98195.16;;;16.52;100.00
68948;BME280;55996;49.546;7.400;2022-09-09T02:39:13;98213.56;;;16.66;100.00
68948;BME280;55996;49.546;7.400;2022-09-09T02:41:40;98203.16;;;16.77;100.00
68948;BME280;55996;49.546;7.400;2022-09-09T02:44:14;98199.16;;;16.85;100.00
68948;BME280;55996;49.546;7.400;2022-09-09T02:52:01;98202.28;;;17.04;100.00
68948;BME280;55996;49.546;7.400;2022-09-09T02:54:28;98206.69;;;17.04;100.00
68948;BME280;55996;49.546;7.400;2022-09-09T02:59:27;98188.66;;;17.10;100.00
68948;BME280;55996;49.546;7.400;2022-09-09T03:01:52;98188.31;;;17.15;100.00
68948;BME280;55996;49.546;7.400;2022-09-09T03:04:18;98189.50;;;17.11;100.00
68948;BME280;55996;49.546;7.400;2022-09-09T03:06:44;98185.38;;;17.07;100.00
68948;BME280;55996;49.546;7.400;2022-09-09T03:09:09;98194.56;;;17.01;100.00
68948;BME280;55996;49.546;7.400;2022-09-09T03:11:36;98195.59;;;16.99;100.00
68948;BME280;55996;49.546;7.400;2022-09-09T03:14:02;98190.44;;;16.97;100.00
68948;BME280;55996;49.546;7.400;2022-09-09T03:16:27;98188.53;;;16.99;100.00
68948;BME280;55996;49.546;7.400;2022-09-09T03:18:53;98176.47;;;16.95;100.00
68948;BME280;55996;49.546;7.400;2022-09-09T03:21:18;98189.69;;;16.95;100.00
68948;BME280;55996;49.546;7.400;2022-09-09T03:23:44;98186.41;;;16.91;100.00
68948;BME280;55996;49.546;7.400;2022-09-09T03:26:10;98177.38;;;16.81;100.00
68948;BME280;55996;49.546;7.400;2022-09-09T03:28:35;98180.66;;;16.85;100.00
68948;BME280;55996;49.546;7.400;2022-09-09T03:31:02;98186.47;;;16.77;100.00
68948;BME280;55996;49.546;7.400;2022-09-09T03:33:29;98176.50;;;16.68;100.00
68948;BME280;55996;49.546;7.400;2022-09-09T03:35:55;98170.69;;;16.62;100.00
68948;BME280;55996;49.546;7.400;2022-09-09T03:38:25;98183.78;;;16.64;100.00
68948;BME280;55996;49.546;7.400;2022-09-09T03:40:52;98190.09;;;16.49;100.00
68948;BME280;55996;49.546;7.400;2022-09-09T03:43:21;98203.22;;;16.36;100.00
68948;BME280;55996;49.546;7.400;2022-09-09T03:45:47;98195.41;;;16.34;100.00
68948;BME280;55996;49.546;7.400;2022-09-09T03:48:13;98191.97;;;16.19;100.00
68948;BME280;55996;49.546;7.400;2022-09-09T03:50:39;98188.88;;;16.12;100.00
68948;BME280;55996;49.546;7.400;2022-09-09T03:53:04;98196.94;;;16.24;100.00
68948;BME280;55996;49.546;7.400;2022-09-09T03:55:31;98199.47;;;16.25;100.00
68948;BME280;55996;49.546;7.400;2022-09-09T03:57:57;98190.34;;;16.31;100.00
68948;BME280;55996;49.546;7.400;2022-09-09T04:00:23;98207.84;;;16.32;100.00
68948;BME280;55996;49.546;7.400;2022-09-09T04:02:49;98213.28;;;16.43;100.00
68948;BME280;55996;49.546;7.400;2022-09-09T04:05:15;98207.69;;;16.48;100.00
68948;BME280;55996;49.546;7.400;2022-09-09T04:07:40;98197.59;;;16.55;100.00
68948;BME280;55996;49.546;7.400;2022-09-09T04:10:07;98200.03;;;16.58;100.00
68948;BME280;55996;49.546;7.400;2022-09-09T04:12:33;98183.88;;;16.50;100.00
68948;BME280;55996;49.546;7.400;2022-09-09T04:14:59;98202.91;;;16.68;100.00
68948;BME280;55996;49.546;7.400;2022-09-09T04:17:27;98203.03;;;16.79;100.00
68948;BME280;55996;49.546;7.400;2022-09-09T04:19:52;98203.91;;;16.80;100.00
68948;BME280;55996;49.546;7.400;2022-09-09T04:22:18;98190.69;;;16.80;100.00
68948;BME280;55996;49.546;7.400;2022-09-09T04:24:43;98195.97;;;16.80;100.00
68948;BME280;55996;49.546;7.400;2022-09-09T04:27:08;98206.31;;;16.83;100.00
68948;BME280;55996;49.546;7.400;2022-09-09T04:29:34;98211.50;;;16.84;100.00
68948;BME280;55996;49.546;7.400;2022-09-09T04:32:00;98207.19;;;16.83;100.00
68948;BME280;55996;49.546;7.400;2022-09-09T04:34:25;98207.06;;;16.85;100.00
68948;BME280;55996;49.546;7.400;2022-09-09T04:36:51;98202.63;;;16.85;100.00
68948;BME280;55996;49.546;7.400;2022-09-09T04:39:20;98208.41;;;16.92;100.00
68948;BME280;55996;49.546;7.400;2022-09-09T04:41:45;98209.69;;;17.12;100.00
68948;BME280;55996;49.546;7.400;2022-09-09T04:44:12;98218.66;;;17.09;100.00
68948;BME280;55996;49.546;7.400;2022-09-09T04:46:37;98210.63;;;16.98;100.00
68948;BME280;55996;49.546;7.400;2022-09-09T04:49:03;98214.50;;;17.05;100.00
68948;BME280;55996;49.546;7.400;2022-09-09T04:51:28;98211.88;;;17.05;100.00
68948;BME280;55996;49.546;7.400;2022-09-09T04:53:54;98212.50;;;17.09;100.00
68948;BME280;55996;49.546;7.400;2022-09-09T04:56:20;98214.31;;;17.08;100.00
68948;BME280;55996;49.546;7.400;2022-09-09T04:58:45;98205.25;;;17.25;100.00
68948;BME280;55996;49.546;7.400;2022-09-09T05:03:36;98212.66;;;17.59;100.00
68948;BME280;55996;49.546;7.400;2022-09-09T05:06:14;98217.91;;;17.72;100.00
68948;BME280;55996;49.546;7.400;2022-09-09T05:08:41;98213.38;;;17.74;100.00
68948;BME280;55996;49.546;7.400;2022-09-09T05:11:22;98217.09;;;17.71;100.00
68948;BME280;55996;49.546;7.400;2022-09-09T05:13:49;98221.09;;;17.64;100.00
68948;BME280;55996;49.546;7.400;2022-09-09T05:16:16;98214.34;;;17.60;100.00
68948;BME280;55996;49.546;7.400;2022-09-09T05:18:42;98213.81;;;17.55;100.00
68948;BME280;55996;49.546;7.400;2022-09-09T05:21:12;98225.97;;;17.45;100.00
68948;BME280;55996;49.546;7.400;2022-09-09T05:23:38;98219.44;;;17.50;100.00
68948;BME280;55996;49.546;7.400;2022-09-09T05:26:04;98231.69;;;17.38;100.00
68948;BME280;55996;49.546;7.400;2022-09-09T05:28:31;98233.91;;;17.45;100.00
68948;BME280;55996;49.546;7.400;2022-09-09T05:31:00;98226.91;;;17.43;100.00
68948;BME280;55996;49.546;7.400;2022-09-09T05:33:29;98229.97;;;17.37;100.00
68948;BME280;55996;49.546;7.400;2022-09-09T05:36:02;98236.34;;;17.48;100.00
68948;BME280;55996;49.546;7.400;2022-09-09T05:38:30;98238.00;;;17.49;100.00
68948;BME280;55996;49.546;7.400;2022-09-09T05:40:57;98233.72;;;17.48;100.00
68948;BME280;55996;49.546;7.400;2022-09-09T05:43:23;98239.41;;;17.41;100.00
68948;BME280;55996;49.546;7.400;2022-09-09T05:46:08;98246.50;;;17.54;100.00
68948;BME280;55996;49.546;7.400;2022-09-09T05:48:35;98238.34;;;17.57;100.00
68948;BME280;55996;49.546;7.400;2022-09-09T05:51:03;98228.72;;;17.56;100.00
68948;BME280;55996;49.546;7.400;2022-09-09T05:53:29;98244.81;;;17.53;100.00
68948;BME280;55996;49.546;7.400;2022-09-09T05:56:07;98254.09;;;17.58;100.00
68948;BME280;55996;49.546;7.400;2022-09-09T05:58:35;98254.72;;;17.62;100.00
68948;BME280;55996;49.546;7.400;2022-09-09T06:01:08;98253.03;;;17.74;100.00
68948;BME280;55996;49.546;7.400;2022-09-09T06:03:36;98256.09;;;17.81;100.00
68948;BME280;55996;49.546;7.400;2022-09-09T06:06:05;98256.19;;;17.92;100.00
68948;BME280;55996;49.546;7.400;2022-09-09T06:08:32;98248.72;;;17.99;100.00
68948;BME280;55996;49.546;7.400;2022-09-09T06:11:06;98248.16;;;18.06;100.00
68948;BME280;55996;49.546;7.400;2022-09-09T06:13:31;98240.00;;;18.10;100.00
68948;BME280;55996;49.546;7.400;2022-09-09T06:15:57;98238.22;;;18.10;100.00
68948;BME280;55996;49.546;7.400;2022-09-09T06:18:24;98250.69;;;18.21;100.00
68948;BME280;55996;49.546;7.400;2022-09-09T06:23:19;98248.53;;;18.26;100.00
68948;BME280;55996;49.546;7.400;2022-09-09T06:25:45;98248.94;;;18.33;100.00
68948;BME280;55996;49.546;7.400;2022-09-09T06:28:11;98243.94;;;18.41;100.00
68948;BME280;55996;49.546;7.400;2022-09-09T06:30:36;98251.75;;;18.43;100.00
68948;BME280;55996;49.546;7.400;2022-09-09T06:33:02;98247.66;;;18.38;100.00
68948;BME280;55996;49.546;7.400;2022-09-09T06:35:27;98248.59;;;18.37;100.00
68948;BME280;55996;49.546;7.400;2022-09-09T06:37:53;98250.63;;;18.34;100.00
68948;BME280;55996;49.546;7.400;2022-09-09T06:40:19;98252.66;;;18.30;100.00
68948;BME280;55996;49.546;7.400;2022-09-09T06:42:44;98250.00;;;18.30;100.00
68948;BME280;55996;49.546;7.400;2022-09-09T06:45:10;98258.06;;;18.29;100.00
68948;BME280;55996;49.546;7.400;2022-09-09T06:47:36;98245.91;;;18.26;100.00
68948;BME280;55996;49.546;7.400;2022-09-09T06:50:01;98250.31;;;18.38;100.00
68948;BME280;55996;49.546;7.400;2022-09-09T06:52:27;98244.38;;;18.35;100.00
68948;BME280;55996;49.546;7.400;2022-09-09T06:54:52;98254.28;;;18.44;100.00
68948;BME280;55996;49.546;7.400;2022-09-09T06:57:18;98241.59;;;18.49;100.00
68948;BME280;55996;49.546;7.400;2022-09-09T06:59:44;98240.72;;;18.49;100.00
68948;BME280;55996;49.546;7.400;2022-09-09T07:02:09;98245.25;;;18.60;100.00
68948;BME280;55996;49.546;7.400;2022-09-09T07:04:35;98242.03;;;18.67;100.00
68948;BME280;55996;49.546;7.400;2022-09-09T07:07:02;98243.94;;;18.65;100.00
68948;BME280;55996;49.546;7.400;2022-09-09T07:09:27;98233.34;;;18.65;100.00
68948;BME280;55996;49.546;7.400;2022-09-09T07:11:54;98250.34;;;18.74;100.00
68948;BME280;55996;49.546;7.400;2022-09-09T07:14:20;98249.41;;;18.75;100.00
68948;BME280;55996;49.546;7.400;2022-09-09T07:16:46;98253.00;;;18.74;100.00
68948;BME280;55996;49.546;7.400;2022-09-09T07:19:12;98247.13;;;18.70;100.00
68948;BME280;55996;49.546;7.400;2022-09-09T07:21:39;98254.31;;;18.68;100.00
68948;BME280;55996;49.546;7.400;2022-09-09T07:24:07;98236.22;;;18.62;100.00
68948;BME280;55996;49.546;7.400;2022-09-09T07:26:35;98258.47;;;18.60;100.00
68948;BME280;55996;49.546;7.400;2022-09-09T07:29:01;98247.03;;;18.59;100.00
68948;BME280;55996;49.546;7.400;2022-09-09T07:31:29;98251.19;;;18.50;100.00
68948;BME280;55996;49.546;7.400;2022-09-09T07:33:56;98267.69;;;18.54;100.00
68948;BME280;55996;49.546;7.400;2022-09-09T07:36:27;98260.69;;;18.66;100.00
68948;BME280;55996;49.546;7.400;2022-09-09T07:38:55;98268.78;;;18.76;100.00
68948;BME280;55996;49.546;7.400;2022-09-09T07:41:26;98269.28;;;18.81;100.00
68948;BME280;55996;49.546;7.400;2022-09-09T07:43:52;98266.19;;;18.87;100.00
68948;BME280;55996;49.546;7.400;2022-09-09T07:46:23;98269.03;;;18.97;100.00
68948;BME280;55996;49.546;7.400;2022-09-09T07:48:51;98259.13;;;19.23;100.00
68948;BME280;55996;49.546;7.400;2022-09-09T07:51:19;98266.03;;;19.37;100.00
68948;BME280;55996;49.546;7.400;2022-09-09T07:53:46;98272.69;;;19.54;100.00
68948;BME280;55996;49.546;7.400;2022-09-09T07:56:15;98268.38;;;19.64;100.00
68948;BME280;55996;49.546;7.400;2022-09-09T07:58:47;98279.34;;;19.71;100.00
68948;BME280;55996;49.546;7.400;2022-09-09T08:03:47;98273.25;;;19.93;100.00
68948;BME280;55996;49.546;7.400;2022-09-09T08:06:13;98273.34;;;20.03;100.00
68948;BME280;55996;49.546;7.400;2022-09-09T08:08:39;98266.13;;;19.94;100.00
68948;BME280;55996;49.546;7.400;2022-09-09T08:11:14;98275.91;;;20.05;100.00
68948;BME280;55996;49.546;7.400;2022-09-09T08:13:41;98262.63;;;20.05;100.00
68948;BME280;55996;49.546;7.400;2022-09-09T08:16:09;98275.91;;;20.16;100.00
68948;BME280;55996;49.546;7.400;2022-09-09T08:18:35;98275.41;;;20.34;100.00
68948;BME280;55996;49.546;7.400;2022-09-09T08:21:21;98268.34;;;20.55;100.00
68948;BME280;55996;49.546;7.400;2022-09-09T08:23:50;98257.72;;;20.55;100.00
68948;BME280;55996;49.546;7.400;2022-09-09T08:26:20;98263.78;;;20.46;100.00
68948;BME280;55996;49.546;7.400;2022-09-09T08:28:47;98279.81;;;20.56;100.00
68948;BME280;55996;49.546;7.400;2022-09-09T08:31:19;98289.50;;;20.45;100.00
68948;BME280;55996;49.546;7.400;2022-09-09T08:33:46;98295.06;;;20.42;100.00
68948;BME280;55996;49.546;7.400;2022-09-09T08:36:17;98293.47;;;20.51;100.00
68948;BME280;55996;49.546;7.400;2022-09-09T08:38:43;98290.47;;;20.44;100.00
68948;BME280;55996;49.546;7.400;2022-09-09T08:43:41;98298.69;;;20.30;100.00
68948;BME280;55996;49.546;7.400;2022-09-09T08:46:20;98285.41;;;20.30;100.00
68948;BME280;55996;49.546;7.400;2022-09-09T08:49:16;98279.28;;;20.29;100.00
68948;BME280;55996;49.546;7.400;2022-09-09T08:51:45;98281.19;;;20.39;100.00
68948;BME280;55996;49.546;7.400;2022-09-09T08:54:10;98297.56;;;20.55;99.59
68948;BME280;55996;49.546;7.400;2022-09-09T08:56:36;98292.25;;;20.44;100.00
68948;BME280;55996;49.546;7.400;2022-09-09T08:59:02;98293.50;;;20.40;100.00
68948;BME280;55996;49.546;7.400;2022-09-09T09:10:02;98294.06;;;19.28;100.00
68948;BME280;55996;49.546;7.400;2022-09-09T09:12:37;98299.59;;;19.14;100.00
68948;BME280;55996;49.546;7.400;2022-09-09T09:15:14;98306.28;;;19.07;100.00
68948;BME280;55996;49.546;7.400;2022-09-09T09:17:42;98308.03;;;19.19;100.00
68948;BME280;55996;49.546;7.400;2022-09-09T09:20:13;98292.53;;;19.37;100.00
68948;BME280;55996;49.546;7.400;2022-09-09T09:22:51;98299.72;;;19.71;100.00
68948;BME280;55996;49.546;7.400;2022-09-09T09:25:21;98296.41;;;19.91;100.00
68948;BME280;55996;49.546;7.400;2022-09-09T09:28:13;98298.09;;;20.04;100.00
68948;BME280;55996;49.546;7.400;2022-09-09T09:31:14;98292.06;;;20.36;100.00
68948;BME280;55996;49.546;7.400;2022-09-09T09:36:06;98272.09;;;20.64;100.00
68948;BME280;55996;49.546;7.400;2022-09-09T09:38:34;98290.19;;;20.70;100.00
68948;BME280;55996;49.546;7.400;2022-09-09T09:41:00;98273.38;;;20.70;100.00
68948;BME280;55996;49.546;7.400;2022-09-09T09:43:31;98273.63;;;20.78;100.00
68948;BME280;55996;49.546;7.400;2022-09-09T09:45:57;98276.63;;;20.85;100.00
68948;BME280;55996;49.546;7.400;2022-09-09T09:48:24;98274.66;;;20.98;100.00
68948;BME280;55996;49.546;7.400;2022-09-09T09:50:51;98272.97;;;21.18;100.00
68948;BME280;55996;49.546;7.400;2022-09-09T09:53:29;98279.94;;;21.52;100.00
68948;BME280;55996;49.546;7.400;2022-09-09T09:56:05;98264.91;;;22.34;99.36
68948;BME280;55996;49.546;7.400;2022-09-09T09:58:33;98249.88;;;23.13;90.17
68948;BME280;55996;49.546;7.400;2022-09-09T10:01:02;98241.16;;;23.11;84.66
68948;BME280;55996;49.546;7.400;2022-09-09T10:03:30;98239.38;;;23.21;88.83
68948;BME280;55996;49.546;7.400;2022-09-09T10:05:56;98243.00;;;23.10;86.44
68948;BME280;55996;49.546;7.400;2022-09-09T10:08:26;98234.88;;;23.02;89.87
68948;BME280;55996;49.546;7.400;2022-09-09T10:16:41;98229.97;;;23.17;84.28
68948;BME280;55996;49.546;7.400;2022-09-09T10:22:26;98229.25;;;23.15;88.08
68948;BME280;55996;49.546;7.400;2022-09-09T10:27:38;98210.03;;;23.11;81.15
68948;BME280;55996;49.546;7.400;2022-09-09T10:38:26;98241.13;;;22.42;82.08
68948;BME280;55996;49.546;7.400;2022-09-09T10:48:57;98278.00;;;21.75;91.03
68948;BME280;55996;49.546;7.400;2022-09-09T10:56:44;98303.84;;;19.75;100.00
68948;BME280;55996;49.546;7.400;2022-09-09T10:59:18;98305.13;;;19.22;100.00
68948;BME280;55996;49.546;7.400;2022-09-09T11:01:53;98309.91;;;18.68;100.00
68948;BME280;55996;49.546;7.400;2022-09-09T11:04:47;98312.81;;;18.52;100.00
68948;BME280;55996;49.546;7.400;2022-09-09T11:07:22;98302.53;;;18.23;100.00
68948;BME280;55996;49.546;7.400;2022-09-09T11:09:54;98313.13;;;18.11;100.00
68948;BME280;55996;49.546;7.400;2022-09-09T11:12:20;98299.91;;;17.98;100.00
68948;BME280;55996;49.546;7.400;2022-09-09T11:15:05;98296.19;;;17.74;100.00
68948;BME280;55996;49.546;7.400;2022-09-09T11:17:45;98279.69;;;17.71;100.00
68948;BME280;55996;49.546;7.400;2022-09-09T11:20:13;98297.53;;;17.93;100.00
68948;BME280;55996;49.546;7.400;2022-09-09T11:22:46;98293.53;;;18.13;100.00
68948;BME280;55996;49.546;7.400;2022-09-09T11:38:27;98297.25;;;18.85;100.00
68948;BME280;55996;49.546;7.400;2022-09-09T11:40:57;98310.97;;;18.90;100.00
68948;BME280;55996;49.546;7.400;2022-09-09T11:43:29;98297.84;;;19.01;100.00
68948;BME280;55996;49.546;7.400;2022-09-09T11:45:58;98290.94;;;19.23;100.00
68948;BME280;55996;49.546;7.400;2022-09-09T11:48:39;98268.66;;;19.26;100.00
68948;BME280;55996;49.546;7.400;2022-09-09T11:51:11;98278.19;;;19.40;100.00
68948;BME280;55996;49.546;7.400;2022-09-09T11:54:00;98278.31;;;19.85;100.00
68948;BME280;55996;49.546;7.400;2022-09-09T11:59:28;98268.53;;;19.97;100.00
68948;BME280;55996;49.546;7.400;2022-09-09T12:01:57;98271.53;;;20.26;100.00
68948;BME280;55996;49.546;7.400;2022-09-09T12:06:59;98272.88;;;20.32;100.00
68948;BME280;55996;49.546;7.400;2022-09-09T12:17:45;98269.63;;;19.83;100.00
68948;BME280;55996;49.546;7.400;2022-09-09T12:23:30;98256.03;;;19.41;100.00
68948;BME280;55996;49.546;7.400;2022-09-09T12:28:21;98270.66;;;19.58;100.00
68948;BME280;55996;49.546;7.400;2022-09-09T12:31:11;98262.81;;;19.56;100.00
68948;BME280;55996;49.546;7.400;2022-09-09T12:33:43;98271.75;;;19.66;100.00
68948;BME280;55996;49.546;7.400;2022-09-09T12:36:16;98260.94;;;19.81;100.00
68948;BME280;55996;49.546;7.400;2022-09-09T12:38:45;98262.59;;;19.82;100.00
68948;BME280;55996;49.546;7.400;2022-09-09T12:41:26;98252.72;;;20.07;100.00
68948;BME280;55996;49.546;7.400;2022-09-09T12:44:06;98252.25;;;20.13;100.00
68948;BME280;55996;49.546;7.400;2022-09-09T12:46:38;98252.25;;;20.24;100.00
68948;BME280;55996;49.546;7.400;2022-09-09T12:49:34;98251.16;;;20.71;100.00
68948;BME280;55996;49.546;7.400;2022-09-09T12:52:07;98234.72;;;21.31;100.00
68948;BME280;55996;49.546;7.400;2022-09-09T12:54:36;98233.88;;;21.51;100.00
68948;BME280;55996;49.546;7.400;2022-09-09T12:57:03;98235.06;;;21.58;100.00
68948;BME280;55996;49.546;7.400;2022-09-09T12:59:38;98235.91;;;21.59;100.00
68948;BME280;55996;49.546;7.400;2022-09-09T13:02:34;98233.03;;;22.13;100.00
68948;BME280;55996;49.546;7.400;2022-09-09T13:05:14;98245.66;;;22.11;100.00
68948;BME280;55996;49.546;7.400;2022-09-09T13:07:41;98246.41;;;21.91;100.00
68948;BME280;55996;49.546;7.400;2022-09-09T13:10:11;98251.63;;;21.62;100.00
68948;BME280;55996;49.546;7.400;2022-09-09T13:12:37;98261.97;;;21.44;100.00
68948;BME280;55996;49.546;7.400;2022-09-09T13:15:03;98261.25;;;21.21;100.00
68948;BME280;55996;49.546;7.400;2022-09-09T13:17:29;98270.06;;;21.00;100.00
68948;BME280;55996;49.546;7.400;2022-09-09T13:19:55;98283.91;;;20.71;100.00
68948;BME280;55996;49.546;7.400;2022-09-09T13:22:39;98257.69;;;20.11;100.00
68948;BME280;55996;49.546;7.400;2022-09-09T13:25:21;98261.66;;;19.83;100.00
68948;BME280;55996;49.546;7.400;2022-09-09T13:28:02;98262.59;;;19.71;100.00
68948;BME280;55996;49.546;7.400;2022-09-09T13:33:18;98248.09;;;19.63;100.00
68948;BME280;55996;49.546;7.400;2022-09-09T13:36:04;98259.31;;;19.56;100.00
68948;BME280;55996;49.546;7.400;2022-09-09T13:38:36;98249.56;;;19.56;100.00
68948;BME280;55996;49.546;7.400;2022-09-09T13:41:05;98231.22;;;19.64;100.00
68948;BME280;55996;49.546;7.400;2022-09-09T13:46:04;98237.16;;;19.68;100.00
68948;BME280;55996;49.546;7.400;2022-09-09T13:48:31;98230.41;;;19.64;100.00
68948;BME280;55996;49.546;7.400;2022-09-09T13:51:04;98238.63;;;19.72;100.00
68948;BME280;55996;49.546;7.400;2022-09-09T13:53:30;98242.09;;;19.73;100.00
68948;BME280;55996;49.546;7.400;2022-09-09T13:55:56;98229.31;;;19.78;100.00
68948;BME280;55996;49.546;7.400;2022-09-09T13:58:24;98244.56;;;19.87;100.00
68948;BME280;55996;49.546;7.400;2022-09-09T14:00:54;98249.84;;;19.98;100.00
68948;BME280;55996;49.546;7.400;2022-09-09T14:03:19;98238.13;;;20.12;100.00
68948;BME280;55996;49.546;7.400;2022-09-09T14:05:45;98242.34;;;20.26;100.00
68948;BME280;55996;49.546;7.400;2022-09-09T14:08:20;98247.13;;;20.44;100.00
68948;BME280;55996;49.546;7.400;2022-09-09T14:10:46;98234.03;;;20.63;100.00
68948;BME280;55996;49.546;7.400;2022-09-09T14:13:12;98235.22;;;20.71;100.00
68948;BME280;55996;49.546;7.400;2022-09-09T14:15:38;98224.38;;;20.74;100.00
68948;BME280;55996;49.546;7.400;2022-09-09T14:18:04;98215.78;;;20.82;100.00
68948;BME280;55996;49.546;7.400;2022-09-09T14:20:29;98220.75;;;20.75;100.00
68948;BME280;55996;49.546;7.400;2022-09-09T14:22:55;98223.78;;;20.70;100.00
68948;BME280;55996;49.546;7.400;2022-09-09T14:25:21;98224.28;;;20.64;100.00
68948;BME280;55996;49.546;7.400;2022-09-09T14:27:47;98216.22;;;20.54;100.00
68948;BME280;55996;49.546;7.400;2022-09-09T14:30:12;98228.31;;;20.47;100.00
68948;BME280;55996;49.546;7.400;2022-09-09T14:32:38;98217.00;;;20.22;100.00
68948;BME280;55996;49.546;7.400;2022-09-09T14:35:03;98233.75;;;20.34;100.00
68948;BME280;55996;49.546;7.400;2022-09-09T14:37:29;98226.88;;;20.31;100.00
68948;BME280;55996;49.546;7.400;2022-09-09T14:39:56;98214.72;;;20.18;100.00
68948;BME280;55996;49.546;7.400;2022-09-09T14:42:21;98235.81;;;20.19;100.00
68948;BME280;55996;49.546;7.400;2022-09-09T14:44:47;98230.03;;;20.25;100.00
68948;BME280;55996;49.546;7.400;2022-09-09T14:47:13;98229.06;;;20.26;100.00
68948;BME280;55996;49.546;7.400;2022-09-09T14:49:38;98224.72;;;20.25;100.00
68948;BME280;55996;49.546;7.400;2022-09-09T14:52:04;98228.22;;;20.26;100.00
68948;BME280;55996;49.546;7.400;2022-09-09T14:54:31;98206.03;;;20.27;100.00
68948;BME280;55996;49.546;7.400;2022-09-09T14:56:57;98225.63;;;20.58;100.00
68948;BME280;55996;49.546;7.400;2022-09-09T14:59:23;98208.41;;;20.85;100.00
68948;BME280;55996;49.546;7.400;2022-09-09T15:01:49;98208.72;;;20.92;100.00
68948;BME280;55996;49.546;7.400;2022-09-09T15:04:14;98188.06;;;20.95;100.00
68948;BME280;55996;49.546;7.400;2022-09-09T15:06:40;98189.97;;;20.93;100.00
68948;BME280;55996;49.546;7.400;2022-09-09T15:09:07;98186.94;;;20.77;100.00
68948;BME280;55996;49.546;7.400;2022-09-09T15:11:35;98161.81;;;20.70;100.00
68948;BME280;55996;49.546;7.400;2022-09-09T15:14:04;98169.09;;;20.56;100.00
68948;BME280;55996;49.546;7.400;2022-09-09T15:16:30;98194.47;;;20.49;100.00
68948;BME280;55996;49.546;7.400;2022-09-09T15:18:57;98202.47;;;20.38;100.00
68948;BME280;55996;49.546;7.400;2022-09-09T15:21:26;98204.44;;;20.36;100.00
68948;BME280;55996;49.546;7.400;2022-09-09T15:23:51;98219.91;;;20.30;100.00
68948;BME280;55996;49.546;7.400;2022-09-09T15:26:18;98243.91;;;20.29;100.00